sensor_id;sensor_type;location;lat;lon;timestamp;temperature;humidity
44487;DHT22;30191;50.908;6.962;2022-08-23T00:01:20;22.90;99.90
44487;DHT22;30191;50.908;6.962;2022-08-23T00:03:47;22.90;99.90
44487;DHT22;30191;50.908;6.962;2022-08-23T00:06:13;22.80;99.90
44487;DHT22;30191;50.908;6.962;2022-08-23T00:08:39;22.80;99.90
44487;DHT22;30191;50.908;6.962;2022-08-23T00:11:06;22.70;99.90
44487;DHT22;30191;50.908;6.962;2022-08-23T00:13:48;22.70;99.90
44487;DHT22;30191;50.908;6.962;2022-08-23T00:16:14;22.60;99.90
44487;DHT22;30191;50.908;6.962;2022-08-23T00:18:39;22.60;99.90
44487;DHT22;30191;50.908;6.962;2022-08-23T00:21:06;22.60;99.90
44487;DHT22;30191;50.908;6.962;2022-08-23T00:23:31;22.50;99.90
44487;DHT22;30191;50.908;6.962;2022-08-23T00:26:00;22.50;99.90
44487;DHT22;30191;50.908;6.962;2022-08-23T00:28:27;22.50;99.90
44487;DHT22;30191;50.908;6.962;2022-08-23T00:30:53;22.60;99.90
44487;DHT22;30191;50.908;6.962;2022-08-23T00:33:18;22.50;99.90
44487;DHT22;30191;50.908;6.962;2022-08-23T00:35:44;22.60;99.90
44487;DHT22;30191;50.908;6.962;2022-08-23T00:38:10;22.50;99.90
44487;DHT22;30191;50.908;6.962;2022-08-23T00:40:36;22.60;99.90
44487;DHT22;30191;50.908;6.962;2022-08-23T00:43:06;22.40;99.90
44487;DHT22;30191;50.908;6.962;2022-08-23T00:48:42;22.60;99.90
44487;DHT22;30191;50.908;6.962;2022-08-23T00:51:32;22.60;99.90
44487;DHT22;30191;50.908;6.962;2022-08-23T00:54:00;22.50;99.90
44487;DHT22;30191;50.908;6.962;2022-08-23T00:56:29;22.50;99.90
44487;DHT22;30191;50.908;6.962;2022-08-23T00:58:55;22.30;99.90
44487;DHT22;30191;50.908;6.962;2022-08-23T01:01:22;22.30;99.90
44487;DHT22;30191;50.908;6.962;2022-08-23T01:03:55;22.20;99.90
44487;DHT22;30191;50.908;6.962;2022-08-23T01:06:39;22.10;99.90
44487;DHT22;30191;50.908;6.962;2022-08-23T01:09:11;22.00;99.90
44487;DHT22;30191;50.908;6.962;2022-08-23T01:12:04;22.10;99.90
44487;DHT22;30191;50.908;6.962;2022-08-23T01:14:42;22.00;99.90
44487;DHT22;30191;50.908;6.962;2022-08-23T01:17:26;22.00;99.90
44487;DHT22;30191;50.908;6.962;2022-08-23T01:20:02;21.80;99.90
44487;DHT22;30191;50.908;6.962;2022-08-23T01:22:51;21.80;99.90
44487;DHT22;30191;50.908;6.962;2022-08-23T01:25:21;21.70;99.90
44487;DHT22;30191;50.908;6.962;2022-08-23T01:27:48;21.80;99.90
44487;DHT22;30191;50.908;6.962;2022-08-23T01:30:18;21.80;99.90
44487;DHT22;30191;50.908;6.962;2022-08-23T01:32:56;21.80;99.90
44487;DHT22;30191;50.908;6.962;2022-08-23T01:35:30;21.80;99.90
44487;DHT22;30191;50.908;6.962;2022-08-23T01:37:58;21.80;99.90
44487;DHT22;30191;50.908;6.962;2022-08-23T01:40:23;21.70;99.90
44487;DHT22;30191;50.908;6.962;2022-08-23T01:42:49;21.70;99.90
44487;DHT22;30191;50.908;6.962;2022-08-23T01:45:15;21.70;99.90
44487;DHT22;30191;50.908;6.962;2022-08-23T01:47:41;21.70;99.90
44487;DHT22;30191;50.908;6.962;2022-08-23T01:50:09;21.70;99.90
44487;DHT22;30191;50.908;6.962;2022-08-23T01:52:36;21.70;99.90
44487;DHT22;30191;50.908;6.962;2022-08-23T01:55:04;21.70;99.90
44487;DHT22;30191;50.908;6.962;2022-08-23T01:57:30;21.70;99.90
44487;DHT22;30191;50.908;6.962;2022-08-23T01:59:57;21.70;99.90
44487;DHT22;30191;50.908;6.962;2022-08-23T02:02:23;21.70;99.90
44487;DHT22;30191;50.908;6.962;2022-08-23T02:04:50;21.60;99.90
44487;DHT22;30191;50.908;6.962;2022-08-23T02:07:16;21.50;99.90
44487;DHT22;30191;50.908;6.962;2022-08-23T02:09:41;21.40;99.90
44487;DHT22;30191;50.908;6.962;2022-08-23T02:12:08;21.50;99.90
44487;DHT22;30191;50.908;6.962;2022-08-23T02:14:34;21.50;99.90
44487;DHT22;30191;50.908;6.962;2022-08-23T02:17:01;21.60;99.90
44487;DHT22;30191;50.908;6.962;2022-08-23T02:19:27;21.50;99.90
44487;DHT22;30191;50.908;6.962;2022-08-23T02:21:53;21.40;99.90
44487;DHT22;30191;50.908;6.962;2022-08-23T02:24:22;21.50;99.90
44487;DHT22;30191;50.908;6.962;2022-08-23T02:26:52;21.40;99.90
44487;DHT22;30191;50.908;6.962;2022-08-23T02:29:19;21.40;99.90
44487;DHT22;30191;50.908;6.962;2022-08-23T02:31:46;21.40;99.90
44487;DHT22;30191;50.908;6.962;2022-08-23T02:34:13;21.50;99.90
44487;DHT22;30191;50.908;6.962;2022-08-23T02:36:40;21.50;99.90
44487;DHT22;30191;50.908;6.962;2022-08-23T02:39:07;21.40;99.90
44487;DHT22;30191;50.908;6.962;2022-08-23T02:41:33;21.30;99.90
44487;DHT22;30191;50.908;6.962;2022-08-23T02:43:59;21.20;99.90
44487;DHT22;30191;50.908;6.962;2022-08-23T02:46:25;21.20;99.90
44487;DHT22;30191;50.908;6.962;2022-08-23T02:48:51;21.20;99.90
44487;DHT22;30191;50.908;6.962;2022-08-23T02:51:17;21.30;99.90
44487;DHT22;30191;50.908;6.962;2022-08-23T02:53:44;21.20;99.90
44487;DHT22;30191;50.908;6.962;2022-08-23T02:56:11;21.30;99.90
44487;DHT22;30191;50.908;6.962;2022-08-23T02:58:37;21.20;99.90
44487;DHT22;30191;50.908;6.962;2022-08-23T03:01:04;21.20;99.90
44487;DHT22;30191;50.908;6.962;2022-08-23T03:03:30;21.10;99.90
44487;DHT22;30191;50.908;6.962;2022-08-23T03:05:56;21.20;99.90
44487;DHT22;30191;50.908;6.962;2022-08-23T03:08:24;21.10;99.90
44487;DHT22;30191;50.908;6.962;2022-08-23T03:10:51;21.10;99.90
44487;DHT22;30191;50.908;6.962;2022-08-23T03:13:17;21.00;99.90
44487;DHT22;30191;50.908;6.962;2022-08-23T03:15:43;21.00;99.90
44487;DHT22;30191;50.908;6.962;2022-08-23T03:18:09;21.00;99.90
44487;DHT22;30191;50.908;6.962;2022-08-23T03:20:38;21.00;99.90
44487;DHT22;30191;50.908;6.962;2022-08-23T03:23:07;21.00;99.90
44487;DHT22;30191;50.908;6.962;2022-08-23T03:25:32;21.00;99.90
44487;DHT22;30191;50.908;6.962;2022-08-23T03:28:02;21.00;99.90
44487;DHT22;30191;50.908;6.962;2022-08-23T03:30:29;20.80;99.90
44487;DHT22;30191;50.908;6.962;2022-08-23T03:32:55;20.70;99.90
44487;DHT22;30191;50.908;6.962;2022-08-23T03:35:21;20.70;99.90
44487;DHT22;30191;50.908;6.962;2022-08-23T03:37:46;20.70;99.90
44487;DHT22;30191;50.908;6.962;2022-08-23T03:40:12;20.70;99.90
44487;DHT22;30191;50.908;6.962;2022-08-23T03:42:38;20.60;99.90
44487;DHT22;30191;50.908;6.962;2022-08-23T03:45:04;20.60;99.90
44487;DHT22;30191;50.908;6.962;2022-08-23T03:47:30;20.70;99.90
44487;DHT22;30191;50.908;6.962;2022-08-23T03:49:58;20.70;99.90
44487;DHT22;30191;50.908;6.962;2022-08-23T03:52:24;20.70;99.90
44487;DHT22;30191;50.908;6.962;2022-08-23T03:54:50;20.60;99.90
44487;DHT22;30191;50.908;6.962;2022-08-23T03:57:15;20.70;99.90
44487;DHT22;30191;50.908;6.962;2022-08-23T03:59:41;20.60;99.90
44487;DHT22;30191;50.908;6.962;2022-08-23T04:02:08;20.70;99.90
44487;DHT22;30191;50.908;6.962;2022-08-23T04:04:34;20.60;99.90
44487;DHT22;30191;50.908;6.962;2022-08-23T04:07:00;20.80;99.90
44487;DHT22;30191;50.908;6.962;2022-08-23T04:09:26;20.80;99.90
44487;DHT22;30191;50.908;6.962;2022-08-23T04:11:53;20.80;99.90
44487;DHT22;30191;50.908;6.962;2022-08-23T04:14:18;20.60;99.90
44487;DHT22;30191;50.908;6.962;2022-08-23T04:16:44;20.50;99.90
44487;DHT22;30191;50.908;6.962;2022-08-23T04:19:13;20.50;99.90
44487;DHT22;30191;50.908;6.962;2022-08-23T04:21:45;20.40;99.90
44487;DHT22;30191;50.908;6.962;2022-08-23T04:24:13;20.50;99.90
44487;DHT22;30191;50.908;6.962;2022-08-23T04:26:39;20.50;99.90
44487;DHT22;30191;50.908;6.962;2022-08-23T04:29:05;20.50;99.90
44487;DHT22;30191;50.908;6.962;2022-08-23T04:31:31;20.30;99.90
44487;DHT22;30191;50.908;6.962;2022-08-23T04:33:58;20.30;99.90
44487;DHT22;30191;50.908;6.962;2022-08-23T04:36:24;20.30;99.90
44487;DHT22;30191;50.908;6.962;2022-08-23T04:38:50;20.30;99.90
44487;DHT22;30191;50.908;6.962;2022-08-23T04:41:16;20.20;99.90
44487;DHT22;30191;50.908;6.962;2022-08-23T04:44:01;20.10;99.90
44487;DHT22;30191;50.908;6.962;2022-08-23T04:46:26;20.20;99.90
44487;DHT22;30191;50.908;6.962;2022-08-23T04:48:52;20.30;99.90
44487;DHT22;30191;50.908;6.962;2022-08-23T04:51:18;20.40;99.90
44487;DHT22;30191;50.908;6.962;2022-08-23T04:53:44;20.40;99.90
44487;DHT22;30191;50.908;6.962;2022-08-23T04:56:10;20.40;99.90
44487;DHT22;30191;50.908;6.962;2022-08-23T04:58:37;20.40;99.90
44487;DHT22;30191;50.908;6.962;2022-08-23T05:01:05;20.40;99.90
44487;DHT22;30191;50.908;6.962;2022-08-23T05:03:33;20.40;99.90
44487;DHT22;30191;50.908;6.962;2022-08-23T05:05:59;20.40;99.90
44487;DHT22;30191;50.908;6.962;2022-08-23T05:08:26;20.30;99.90
44487;DHT22;30191;50.908;6.962;2022-08-23T05:10:52;20.20;99.90
44487;DHT22;30191;50.908;6.962;2022-08-23T05:13:18;20.20;99.90
44487;DHT22;30191;50.908;6.962;2022-08-23T05:15:44;20.20;99.90
44487;DHT22;30191;50.908;6.962;2022-08-23T05:18:10;20.20;99.90
44487;DHT22;30191;50.908;6.962;2022-08-23T05:20:36;20.10;99.90
44487;DHT22;30191;50.908;6.962;2022-08-23T05:23:01;20.10;99.90
44487;DHT22;30191;50.908;6.962;2022-08-23T05:25:28;20.20;99.90
44487;DHT22;30191;50.908;6.962;2022-08-23T05:28:35;20.30;99.90
44487;DHT22;30191;50.908;6.962;2022-08-23T05:31:03;20.40;99.90
44487;DHT22;30191;50.908;6.962;2022-08-23T05:33:31;20.40;99.90
44487;DHT22;30191;50.908;6.962;2022-08-23T05:35:58;20.40;99.90
44487;DHT22;30191;50.908;6.962;2022-08-23T05:38:25;20.40;99.90
44487;DHT22;30191;50.908;6.962;2022-08-23T05:40:52;20.40;99.90
44487;DHT22;30191;50.908;6.962;2022-08-23T05:43:19;20.50;99.90
44487;DHT22;30191;50.908;6.962;2022-08-23T05:45:45;20.50;99.90
44487;DHT22;30191;50.908;6.962;2022-08-23T05:48:13;20.60;99.90
44487;DHT22;30191;50.908;6.962;2022-08-23T05:50:40;20.70;99.90
44487;DHT22;30191;50.908;6.962;2022-08-23T05:53:07;20.80;99.90
44487;DHT22;30191;50.908;6.962;2022-08-23T05:55:35;20.90;99.90
44487;DHT22;30191;50.908;6.962;2022-08-23T05:58:01;20.90;99.90
44487;DHT22;30191;50.908;6.962;2022-08-23T06:00:26;21.00;99.90
44487;DHT22;30191;50.908;6.962;2022-08-23T06:02:52;21.00;99.90
44487;DHT22;30191;50.908;6.962;2022-08-23T06:05:19;21.00;99.90
44487;DHT22;30191;50.908;6.962;2022-08-23T06:07:46;21.10;99.90
44487;DHT22;30191;50.908;6.962;2022-08-23T06:10:11;21.00;99.90
44487;DHT22;30191;50.908;6.962;2022-08-23T06:12:37;21.10;99.90
44487;DHT22;30191;50.908;6.962;2022-08-23T06:15:03;21.20;99.90
44487;DHT22;30191;50.908;6.962;2022-08-23T06:17:29;21.30;99.90
44487;DHT22;30191;50.908;6.962;2022-08-23T06:19:55;21.30;99.90
44487;DHT22;30191;50.908;6.962;2022-08-23T06:22:21;21.30;99.90
44487;DHT22;30191;50.908;6.962;2022-08-23T06:24:48;21.40;99.90
44487;DHT22;30191;50.908;6.962;2022-08-23T06:27:14;21.50;99.90
44487;DHT22;30191;50.908;6.962;2022-08-23T06:29:39;21.60;99.90
44487;DHT22;30191;50.908;6.962;2022-08-23T06:32:05;21.70;99.90
44487;DHT22;30191;50.908;6.962;2022-08-23T06:34:34;21.70;99.90
44487;DHT22;30191;50.908;6.962;2022-08-23T06:37:10;21.80;99.90
44487;DHT22;30191;50.908;6.962;2022-08-23T06:39:37;21.90;99.90
44487;DHT22;30191;50.908;6.962;2022-08-23T06:42:11;21.90;99.90
44487;DHT22;30191;50.908;6.962;2022-08-23T06:44:37;21.90;99.90
44487;DHT22;30191;50.908;6.962;2022-08-23T06:47:04;21.90;99.90
44487;DHT22;30191;50.908;6.962;2022-08-23T06:49:30;21.90;99.90
44487;DHT22;30191;50.908;6.962;2022-08-23T06:51:57;22.00;99.90
44487;DHT22;30191;50.908;6.962;2022-08-23T06:54:27;22.00;99.90
44487;DHT22;30191;50.908;6.962;2022-08-23T06:56:54;22.10;99.90
44487;DHT22;30191;50.908;6.962;2022-08-23T06:59:20;22.10;99.90
44487;DHT22;30191;50.908;6.962;2022-08-23T07:02:00;22.10;99.90
44487;DHT22;30191;50.908;6.962;2022-08-23T07:04:37;22.10;99.90
44487;DHT22;30191;50.908;6.962;2022-08-23T07:07:04;22.20;99.90
44487;DHT22;30191;50.908;6.962;2022-08-23T07:09:31;22.20;99.90
44487;DHT22;30191;50.908;6.962;2022-08-23T07:11:58;22.20;99.90
44487;DHT22;30191;50.908;6.962;2022-08-23T07:14:25;22.20;99.90
44487;DHT22;30191;50.908;6.962;2022-08-23T07:16:57;22.20;99.90
44487;DHT22;30191;50.908;6.962;2022-08-23T07:19:26;22.20;99.90
44487;DHT22;30191;50.908;6.962;2022-08-23T07:21:53;22.20;99.90
44487;DHT22;30191;50.908;6.962;2022-08-23T07:24:20;22.20;99.90
44487;DHT22;30191;50.908;6.962;2022-08-23T07:26:47;22.30;99.90
44487;DHT22;30191;50.908;6.962;2022-08-23T07:29:15;22.30;99.90
44487;DHT22;30191;50.908;6.962;2022-08-23T07:31:45;22.40;99.90
44487;DHT22;30191;50.908;6.962;2022-08-23T07:34:12;22.40;99.90
44487;DHT22;30191;50.908;6.962;2022-08-23T07:36:39;22.50;99.90
44487;DHT22;30191;50.908;6.962;2022-08-23T07:39:07;22.50;99.90
44487;DHT22;30191;50.908;6.962;2022-08-23T07:41:33;22.70;99.90
44487;DHT22;30191;50.908;6.962;2022-08-23T07:44:01;22.80;99.90
44487;DHT22;30191;50.908;6.962;2022-08-23T07:46:28;22.90;99.90
44487;DHT22;30191;50.908;6.962;2022-08-23T07:48:56;22.90;99.90
44487;DHT22;30191;50.908;6.962;2022-08-23T07:51:26;22.90;99.90
44487;DHT22;30191;50.908;6.962;2022-08-23T07:53:52;22.90;99.90
44487;DHT22;30191;50.908;6.962;2022-08-23T07:56:19;22.90;99.90
44487;DHT22;30191;50.908;6.962;2022-08-23T07:58:45;23.00;99.90
44487;DHT22;30191;50.908;6.962;2022-08-23T08:03:45;23.00;99.90
44487;DHT22;30191;50.908;6.962;2022-08-23T08:06:15;23.00;99.90
44487;DHT22;30191;50.908;6.962;2022-08-23T08:08:41;23.10;99.90
44487;DHT22;30191;50.908;6.962;2022-08-23T08:11:11;23.00;99.90
44487;DHT22;30191;50.908;6.962;2022-08-23T08:13:42;23.10;99.90
44487;DHT22;30191;50.908;6.962;2022-08-23T08:16:09;23.10;99.90
44487;DHT22;30191;50.908;6.962;2022-08-23T08:18:36;23.20;99.90
44487;DHT22;30191;50.908;6.962;2022-08-23T08:21:05;23.20;99.90
44487;DHT22;30191;50.908;6.962;2022-08-23T08:23:31;23.20;99.90
44487;DHT22;30191;50.908;6.962;2022-08-23T08:26:02;23.30;99.90
44487;DHT22;30191;50.908;6.962;2022-08-23T08:28:30;23.30;99.90
44487;DHT22;30191;50.908;6.962;2022-08-23T08:30:56;23.30;99.90
44487;DHT22;30191;50.908;6.962;2022-08-23T08:33:26;23.40;99.90
44487;DHT22;30191;50.908;6.962;2022-08-23T08:35:52;23.50;99.90
44487;DHT22;30191;50.908;6.962;2022-08-23T08:38:18;23.60;99.90
44487;DHT22;30191;50.908;6.962;2022-08-23T08:40:44;23.50;99.90
44487;DHT22;30191;50.908;6.962;2022-08-23T08:46:06;23.70;99.90
44487;DHT22;30191;50.908;6.962;2022-08-23T08:48:45;23.80;99.90
44487;DHT22;30191;50.908;6.962;2022-08-23T08:53:59;23.80;99.90
44487;DHT22;30191;50.908;6.962;2022-08-23T08:56:29;23.90;99.90
44487;DHT22;30191;50.908;6.962;2022-08-23T08:59:00;24.00;99.90
44487;DHT22;30191;50.908;6.962;2022-08-23T09:01:26;24.00;99.90
44487;DHT22;30191;50.908;6.962;2022-08-23T09:03:54;24.00;99.90
44487;DHT22;30191;50.908;6.962;2022-08-23T09:17:24;24.20;99.90
44487;DHT22;30191;50.908;6.962;2022-08-23T09:19:57;24.20;99.90
44487;DHT22;30191;50.908;6.962;2022-08-23T09:22:34;24.20;99.90
44487;DHT22;30191;50.908;6.962;2022-08-23T09:25:02;24.30;99.90
44487;DHT22;30191;50.908;6.962;2022-08-23T09:27:27;24.30;99.90
44487;DHT22;30191;50.908;6.962;2022-08-23T09:29:56;24.40;99.90
44487;DHT22;30191;50.908;6.962;2022-08-23T09:38:14;24.60;99.90
44487;DHT22;30191;50.908;6.962;2022-08-23T09:40:46;24.60;99.90
44487;DHT22;30191;50.908;6.962;2022-08-23T09:48:16;25.20;99.60
44487;DHT22;30191;50.908;6.962;2022-08-23T09:53:31;25.60;99.10
44487;DHT22;30191;50.908;6.962;2022-08-23T09:56:08;25.80;98.70
44487;DHT22;30191;50.908;6.962;2022-08-23T09:58:38;25.90;98.70
44487;DHT22;30191;50.908;6.962;2022-08-23T10:01:15;26.00;98.40
44487;DHT22;30191;50.908;6.962;2022-08-23T10:03:42;26.10;98.60
44487;DHT22;30191;50.908;6.962;2022-08-23T10:06:11;26.00;98.70
44487;DHT22;30191;50.908;6.962;2022-08-23T10:08:52;25.90;98.80
44487;DHT22;30191;50.908;6.962;2022-08-23T10:11:20;25.80;98.70
44487;DHT22;30191;50.908;6.962;2022-08-23T10:13:46;25.70;98.80
44487;DHT22;30191;50.908;6.962;2022-08-23T10:16:18;25.70;98.90
44487;DHT22;30191;50.908;6.962;2022-08-23T10:24:37;26.00;98.30
44487;DHT22;30191;50.908;6.962;2022-08-23T10:46:01;26.50;97.40
44487;DHT22;30191;50.908;6.962;2022-08-23T10:48:37;26.60;97.20
44487;DHT22;30191;50.908;6.962;2022-08-23T10:51:36;26.60;97.30
44487;DHT22;30191;50.908;6.962;2022-08-23T10:56:36;26.60;96.90
44487;DHT22;30191;50.908;6.962;2022-08-23T10:59:22;26.60;96.90
44487;DHT22;30191;50.908;6.962;2022-08-23T11:12:50;26.70;96.50
44487;DHT22;30191;50.908;6.962;2022-08-23T11:16:35;26.80;96.70
44487;DHT22;30191;50.908;6.962;2022-08-23T11:18:38;26.70;96.50
44487;DHT22;30191;50.908;6.962;2022-08-23T11:21:39;26.80;96.40
44487;DHT22;30191;50.908;6.962;2022-08-23T11:36:36;27.10;95.60
44487;DHT22;30191;50.908;6.962;2022-08-23T11:39:14;27.10;95.50
44487;DHT22;30191;50.908;6.962;2022-08-23T11:42:00;27.20;95.40
44487;DHT22;30191;50.908;6.962;2022-08-23T11:44:39;27.20;95.40
44487;DHT22;30191;50.908;6.962;2022-08-23T11:47:10;27.20;95.70
44487;DHT22;30191;50.908;6.962;2022-08-23T11:49:54;27.30;95.10
44487;DHT22;30191;50.908;6.962;2022-08-23T12:11:11;27.70;94.80
44487;DHT22;30191;50.908;6.962;2022-08-23T12:13:48;27.80;95.10
44487;DHT22;30191;50.908;6.962;2022-08-23T12:21:30;28.00;94.60
44487;DHT22;30191;50.908;6.962;2022-08-23T12:24:01;28.10;94.80
44487;DHT22;30191;50.908;6.962;2022-08-23T12:29:06;28.30;94.10
44487;DHT22;30191;50.908;6.962;2022-08-23T12:34:14;28.30;94.00
44487;DHT22;30191;50.908;6.962;2022-08-23T12:39:32;28.70;94.20
44487;DHT22;30191;50.908;6.962;2022-08-23T12:42:12;29.00;93.90
44487;DHT22;30191;50.908;6.962;2022-08-23T12:44:42;29.10;92.80
44487;DHT22;30191;50.908;6.962;2022-08-23T12:47:19;29.40;93.20
44487;DHT22;30191;50.908;6.962;2022-08-23T12:50:04;29.80;92.50
44487;DHT22;30191;50.908;6.962;2022-08-23T12:52:33;30.10;92.20
44487;DHT22;30191;50.908;6.962;2022-08-23T12:55:00;30.40;91.60
44487;DHT22;30191;50.908;6.962;2022-08-23T12:57:38;30.60;91.70
44487;DHT22;30191;50.908;6.962;2022-08-23T13:00:07;31.00;90.70
44487;DHT22;30191;50.908;6.962;2022-08-23T13:02:43;31.30;90.30
44487;DHT22;30191;50.908;6.962;2022-08-23T13:05:13;31.60;89.20
44487;DHT22;30191;50.908;6.962;2022-08-23T13:07:41;31.80;88.70
44487;DHT22;30191;50.908;6.962;2022-08-23T13:10:08;31.90;86.40
44487;DHT22;30191;50.908;6.962;2022-08-23T13:12:35;31.80;86.00
44487;DHT22;30191;50.908;6.962;2022-08-23T13:15:02;32.30;87.00
44487;DHT22;30191;50.908;6.962;2022-08-23T13:17:33;32.60;84.20
44487;DHT22;30191;50.908;6.962;2022-08-23T13:22:29;33.30;81.80
44487;DHT22;30191;50.908;6.962;2022-08-23T13:25:11;34.10;80.50
44487;DHT22;30191;50.908;6.962;2022-08-23T13:32:42;38.80;69.50
44487;DHT22;30191;50.908;6.962;2022-08-23T13:35:36;40.00;65.80
44487;DHT22;30191;50.908;6.962;2022-08-23T13:38:25;40.10;62.90
44487;DHT22;30191;50.908;6.962;2022-08-23T13:41:29;39.40;63.20
44487;DHT22;30191;50.908;6.962;2022-08-23T13:43:53;39.40;61.80
44487;DHT22;30191;50.908;6.962;2022-08-23T13:46:28;39.10;61.60
44487;DHT22;30191;50.908;6.962;2022-08-23T13:49:04;39.70;61.80
44487;DHT22;30191;50.908;6.962;2022-08-23T13:51:32;39.70;60.60
44487;DHT22;30191;50.908;6.962;2022-08-23T13:54:01;39.40;59.80
44487;DHT22;30191;50.908;6.962;2022-08-23T13:56:29;38.90;60.50
44487;DHT22;30191;50.908;6.962;2022-08-23T13:59:04;38.30;60.30
44487;DHT22;30191;50.908;6.962;2022-08-23T14:01:32;38.50;60.40
44487;DHT22;30191;50.908;6.962;2022-08-23T14:03:58;37.80;61.40
44487;DHT22;30191;50.908;6.962;2022-08-23T14:06:23;36.70;61.30
44487;DHT22;30191;50.908;6.962;2022-08-23T14:08:50;35.90;62.00
44487;DHT22;30191;50.908;6.962;2022-08-23T14:11:16;35.20;63.30
44487;DHT22;30191;50.908;6.962;2022-08-23T14:13:46;35.70;63.80
44487;DHT22;30191;50.908;6.962;2022-08-23T14:16:22;37.20;63.60
44487;DHT22;30191;50.908;6.962;2022-08-23T14:18:48;38.20;60.50
44487;DHT22;30191;50.908;6.962;2022-08-23T14:21:14;39.20;60.00
44487;DHT22;30191;50.908;6.962;2022-08-23T14:23:40;38.50;60.40
44487;DHT22;30191;50.908;6.962;2022-08-23T14:26:05;39.00;60.30
44487;DHT22;30191;50.908;6.962;2022-08-23T14:28:32;39.90;59.70
44487;DHT22;30191;50.908;6.962;2022-08-23T14:30:58;40.60;59.50
44487;DHT22;30191;50.908;6.962;2022-08-23T14:33:23;40.60;58.40
44487;DHT22;30191;50.908;6.962;2022-08-23T14:35:49;40.60;57.30
44487;DHT22;30191;50.908;6.962;2022-08-23T14:38:17;39.80;58.00
44487;DHT22;30191;50.908;6.962;2022-08-23T14:40:51;38.50;58.90
44487;DHT22;30191;50.908;6.962;2022-08-23T14:43:18;38.40;59.00
44487;DHT22;30191;50.908;6.962;2022-08-23T14:45:45;39.10;58.70
44487;DHT22;30191;50.908;6.962;2022-08-23T14:48:10;39.80;58.30
44487;DHT22;30191;50.908;6.962;2022-08-23T14:50:36;39.70;58.50
44487;DHT22;30191;50.908;6.962;2022-08-23T14:53:03;39.60;58.20
44487;DHT22;30191;50.908;6.962;2022-08-23T14:55:29;39.90;58.00
44487;DHT22;30191;50.908;6.962;2022-08-23T14:57:55;40.40;57.40
44487;DHT22;30191;50.908;6.962;2022-08-23T15:00:21;40.90;57.50
44487;DHT22;30191;50.908;6.962;2022-08-23T15:02:47;40.80;57.10
44487;DHT22;30191;50.908;6.962;2022-08-23T15:05:14;39.80;56.60
44487;DHT22;30191;50.908;6.962;2022-08-23T15:07:40;38.10;57.60
44487;DHT22;30191;50.908;6.962;2022-08-23T15:10:07;37.80;59.00
44487;DHT22;30191;50.908;6.962;2022-08-23T15:12:34;38.10;59.30
44487;DHT22;30191;50.908;6.962;2022-08-23T15:15:01;38.00;58.60
44487;DHT22;30191;50.908;6.962;2022-08-23T15:17:27;37.30;59.40
44487;DHT22;30191;50.908;6.962;2022-08-23T15:19:53;37.90;59.50
44487;DHT22;30191;50.908;6.962;2022-08-23T15:22:19;38.20;58.90
44487;DHT22;30191;50.908;6.962;2022-08-23T15:24:46;37.60;58.70
44487;DHT22;30191;50.908;6.962;2022-08-23T15:27:11;37.30;59.10
44487;DHT22;30191;50.908;6.962;2022-08-23T15:29:37;38.00;59.60
44487;DHT22;30191;50.908;6.962;2022-08-23T15:32:03;38.30;59.80
44487;DHT22;30191;50.908;6.962;2022-08-23T15:34:28;38.50;59.10
44487;DHT22;30191;50.908;6.962;2022-08-23T15:36:54;38.80;58.40
44487;DHT22;30191;50.908;6.962;2022-08-23T15:39:20;38.60;58.50
44487;DHT22;30191;50.908;6.962;2022-08-23T15:41:45;37.50;58.70
44487;DHT22;30191;50.908;6.962;2022-08-23T15:44:11;37.20;59.80
44487;DHT22;30191;50.908;6.962;2022-08-23T15:46:37;36.80;59.90
44487;DHT22;30191;50.908;6.962;2022-08-23T15:49:10;36.70;60.50
44487;DHT22;30191;50.908;6.962;2022-08-23T15:51:36;35.90;60.50
44487;DHT22;30191;50.908;6.962;2022-08-23T15:54:02;35.00;61.10
44487;DHT22;30191;50.908;6.962;2022-08-23T15:56:41;34.20;62.40
44487;DHT22;30191;50.908;6.962;2022-08-23T15:59:13;33.90;63.30
44487;DHT22;30191;50.908;6.962;2022-08-23T16:01:40;33.70;63.80
44487;DHT22;30191;50.908;6.962;2022-08-23T16:04:06;33.50;64.20
44487;DHT22;30191;50.908;6.962;2022-08-23T16:06:33;33.40;64.30
44487;DHT22;30191;50.908;6.962;2022-08-23T16:09:00;33.30;64.40
44487;DHT22;30191;50.908;6.962;2022-08-23T16:11:25;33.10;64.50
44487;DHT22;30191;50.908;6.962;2022-08-23T16:13:51;33.20;64.60
44487;DHT22;30191;50.908;6.962;2022-08-23T16:16:21;33.20;65.10
44487;DHT22;30191;50.908;6.962;2022-08-23T16:18:49;33.20;65.30
44487;DHT22;30191;50.908;6.962;2022-08-23T16:21:15;33.30;65.00
44487;DHT22;30191;50.908;6.962;2022-08-23T16:23:42;33.30;64.90
44487;DHT22;30191;50.908;6.962;2022-08-23T16:26:17;33.10;65.10
44487;DHT22;30191;50.908;6.962;2022-08-23T16:28:45;33.10;65.60
44487;DHT22;30191;50.908;6.962;2022-08-23T16:31:13;33.10;65.60
44487;DHT22;30191;50.908;6.962;2022-08-23T16:33:39;32.90;65.50
44487;DHT22;30191;50.908;6.962;2022-08-23T16:36:05;32.80;66.10
44487;DHT22;30191;50.908;6.962;2022-08-23T16:38:32;32.70;66.20
44487;DHT22;30191;50.908;6.962;2022-08-23T16:40:58;32.60;66.20
44487;DHT22;30191;50.908;6.962;2022-08-23T16:43:24;32.30;66.80
44487;DHT22;30191;50.908;6.962;2022-08-23T16:45:49;32.30;67.60
44487;DHT22;30191;50.908;6.962;2022-08-23T16:48:15;32.20;67.80
44487;DHT22;30191;50.908;6.962;2022-08-23T16:50:41;32.00;68.30
44487;DHT22;30191;50.908;6.962;2022-08-23T16:53:06;32.00;68.50
44487;DHT22;30191;50.908;6.962;2022-08-23T16:55:34;32.00;68.50
44487;DHT22;30191;50.908;6.962;2022-08-23T16:58:02;32.00;68.40
44487;DHT22;30191;50.908;6.962;2022-08-23T17:00:28;32.00;68.20
44487;DHT22;30191;50.908;6.962;2022-08-23T17:02:54;31.90;68.60
44487;DHT22;30191;50.908;6.962;2022-08-23T17:05:20;31.90;68.80
44487;DHT22;30191;50.908;6.962;2022-08-23T17:07:46;31.80;68.70
44487;DHT22;30191;50.908;6.962;2022-08-23T17:10:14;31.80;68.70
44487;DHT22;30191;50.908;6.962;2022-08-23T17:12:42;31.60;69.30
44487;DHT22;30191;50.908;6.962;2022-08-23T17:15:10;31.50;69.50
44487;DHT22;30191;50.908;6.962;2022-08-23T17:17:36;31.30;69.90
44487;DHT22;30191;50.908;6.962;2022-08-23T17:20:03;31.30;70.30
44487;DHT22;30191;50.908;6.962;2022-08-23T17:22:29;31.30;70.80
44487;DHT22;30191;50.908;6.962;2022-08-23T17:24:55;31.20;70.80
44487;DHT22;30191;50.908;6.962;2022-08-23T17:27:21;31.10;71.00
44487;DHT22;30191;50.908;6.962;2022-08-23T17:29:46;30.90;71.20
44487;DHT22;30191;50.908;6.962;2022-08-23T17:32:12;30.80;71.40
44487;DHT22;30191;50.908;6.962;2022-08-23T17:34:38;30.70;72.00
44487;DHT22;30191;50.908;6.962;2022-08-23T17:37:16;30.60;72.10
44487;DHT22;30191;50.908;6.962;2022-08-23T17:39:42;30.50;72.50
44487;DHT22;30191;50.908;6.962;2022-08-23T17:42:07;30.40;72.50
44487;DHT22;30191;50.908;6.962;2022-08-23T17:44:33;30.30;73.00
44487;DHT22;30191;50.908;6.962;2022-08-23T17:47:00;30.20;73.30